createdAt,value
2022-12-08T00:00:02.632Z,70.82
2022-12-08T00:01:21.864Z,70.86
2022-12-08T00:04:16.508Z,70.89
2022-12-08T00:05:43.789Z,70.76
2022-12-08T00:05:50.345Z,70.70
2022-12-08T00:07:22.105Z,70.98
2022-12-08T00:08:45.214Z,70.82
2022-12-08T00:09:50.003Z,70.70
2022-12-08T00:10:53.473Z,70.90
2022-12-08T00:12:02.614Z,70.68
2022-12-08T00:13:07.534Z,70.74
2022-12-08T00:14:10.939Z,70.79
2022-12-08T00:15:14.462Z,71.06
2022-12-08T00:16:17.882Z,71.04
2022-12-08T00:17:21.658Z,71.35
2022-12-08T00:18:25.860Z,71.58
2022-12-08T00:19:43.158Z,70.89
2022-12-08T00:20:46.807Z,71.11
2022-12-08T00:21:52.897Z,70.57
2022-12-08T00:23:09.038Z,70.97
2022-12-08T00:24:18.922Z,71.12
2022-12-08T00:25:31.779Z,71.24
2022-12-08T00:26:38.890Z,71.13
2022-12-08T00:27:47.682Z,70.84
2022-12-08T00:28:54.522Z,70.72
2022-12-08T00:29:57.916Z,71.05
2022-12-08T00:31:08.703Z,70.89
2022-12-08T00:32:12.542Z,70.97
2022-12-08T00:33:16.061Z,70.84
2022-12-08T00:34:19.996Z,70.92
2022-12-08T00:35:23.339Z,71.20
2022-12-08T00:36:27.087Z,71.03
2022-12-08T00:37:30.976Z,70.94
2022-12-08T00:38:37.832Z,71.08
2022-12-08T00:39:41.339Z,70.92
2022-12-08T00:40:48.574Z,71.08
2022-12-08T00:42:11.739Z,70.85
2022-12-08T00:43:15.522Z,70.72
2022-12-08T00:44:19.753Z,70.79
2022-12-08T00:45:23.511Z,70.91
2022-12-08T00:46:26.901Z,70.69
2022-12-08T00:47:30.259Z,70.61
2022-12-08T00:48:33.974Z,70.63
2022-12-08T00:49:42.311Z,70.80
2022-12-08T00:50:51.087Z,71.03
2022-12-08T00:51:55.662Z,71.04
2022-12-08T00:53:16.715Z,71.00
2022-12-08T00:54:25.954Z,70.69
2022-12-08T00:55:56.150Z,70.81
2022-12-08T00:57:00.665Z,70.66
2022-12-08T00:58:07.455Z,70.29
2022-12-08T00:59:14.168Z,70.33
2022-12-08T01:00:20.796Z,70.46
2022-12-08T01:01:29.825Z,70.53
2022-12-08T01:02:46.698Z,70.62
2022-12-08T01:03:53.138Z,70.82
2022-12-08T01:05:17.244Z,70.49
2022-12-08T01:06:27.507Z,70.77
2022-12-08T01:07:31.771Z,70.84
2022-12-08T01:08:41.459Z,70.86
2022-12-08T01:09:47.864Z,70.94
2022-12-08T01:11:03.634Z,70.93
2022-12-08T01:12:13.184Z,70.90
2022-12-08T01:13:19.831Z,70.72
2022-12-08T01:14:23.567Z,70.75
2022-12-08T01:15:27.162Z,70.88
2022-12-08T01:16:34.364Z,70.93
2022-12-08T01:17:38.685Z,70.77
2022-12-08T01:18:42.043Z,70.81
2022-12-08T01:19:45.464Z,70.83
2022-12-08T01:20:48.948Z,71.10
2022-12-08T01:21:52.356Z,71.09
2022-12-08T01:22:55.963Z,71.26
2022-12-08T01:24:03.056Z,71.03
2022-12-08T01:25:07.988Z,71.08
2022-12-08T01:26:14.845Z,71.09
2022-12-08T01:27:18.416Z,71.13
2022-12-08T01:28:22.135Z,71.13
2022-12-08T01:29:27.514Z,71.37
2022-12-08T01:30:32.498Z,71.24
2022-12-08T01:31:36.267Z,70.92
2022-12-08T01:32:40.084Z,71.28
2022-12-08T01:33:45.127Z,70.60
2022-12-08T01:34:48.542Z,70.98
2022-12-08T01:35:52.785Z,71.07
2022-12-08T01:36:56.440Z,71.36
2022-12-08T01:38:01.515Z,71.29
2022-12-08T01:39:11.616Z,71.28
2022-12-08T01:40:19.174Z,70.65
2022-12-08T01:41:27.671Z,70.76
2022-12-08T01:42:32.691Z,71.30
2022-12-08T01:43:59.353Z,71.34
2022-12-08T01:45:21.828Z,71.07
2022-12-08T01:46:27.530Z,70.86
2022-12-08T01:47:53.459Z,71.03
2022-12-08T01:49:16.394Z,70.96
2022-12-08T01:50:23.354Z,71.25
2022-12-08T01:51:43.686Z,71.35
2022-12-08T01:52:55.232Z,71.57
2022-12-08T01:54:00.492Z,71.42
2022-12-08T01:55:41.841Z,71.35
2022-12-08T01:57:23.904Z,71.43
2022-12-08T01:58:43.015Z,71.47
2022-12-08T02:00:10.429Z,71.31
2022-12-08T02:01:15.894Z,70.97
2022-12-08T02:02:23.196Z,70.95
2022-12-08T02:04:01.553Z,71.26
2022-12-08T02:05:13.978Z,71.57
2022-12-08T02:06:19.827Z,71.13
2022-12-08T02:07:27.727Z,71.67
2022-12-08T02:08:34.944Z,71.67
2022-12-08T02:09:40.662Z,71.63
2022-12-08T02:10:44.426Z,71.57
2022-12-08T02:11:49.616Z,71.32
2022-12-08T02:13:00.494Z,71.64
2022-12-08T02:14:10.071Z,71.41
2022-12-08T02:15:16.486Z,71.33
2022-12-08T02:16:56.929Z,71.29
2022-12-08T02:18:21.900Z,71.64
2022-12-08T02:19:43.705Z,71.53
2022-12-08T02:21:48.104Z,71.48
2022-12-08T02:23:18.578Z,71.81
2022-12-08T02:25:25.081Z,71.55
2022-12-08T02:27:11.836Z,71.78
2022-12-08T02:28:43.385Z,71.73
2022-12-08T02:30:28.728Z,71.77
2022-12-08T02:32:52.939Z,71.98
2022-12-08T02:35:20.381Z,71.89
2022-12-08T02:36:56.910Z,72.35
2022-12-08T02:38:41.361Z,72.32
2022-12-08T02:39:58.568Z,72.05
2022-12-08T02:41:31.261Z,72.39
2022-12-08T02:42:59.376Z,72.56
2022-12-08T02:44:38.166Z,72.59
2022-12-08T02:46:25.651Z,72.63
2022-12-08T02:47:33.320Z,72.65
2022-12-08T02:48:42.201Z,72.51
2022-12-08T02:49:47.465Z,72.92
2022-12-08T02:51:07.261Z,72.89
2022-12-08T02:52:15.203Z,72.99
2022-12-08T02:53:22.535Z,73.05
2022-12-08T02:54:27.734Z,72.95
2022-12-08T02:56:13.370Z,72.73
2022-12-08T02:58:15.170Z,72.52
2022-12-08T02:59:50.180Z,72.92
2022-12-08T03:01:05.740Z,72.98
2022-12-08T03:02:41.731Z,72.82
2022-12-08T03:04:22.065Z,72.55
2022-12-08T03:05:59.629Z,72.88
2022-12-08T03:07:32.153Z,72.98
2022-12-08T03:08:43.349Z,72.67
2022-12-08T03:09:56.580Z,73.01
2022-12-08T03:11:22.032Z,73.07
2022-12-08T03:12:42.162Z,72.98
2022-12-08T03:14:00.236Z,72.80
2022-12-08T03:15:23.462Z,72.91
2022-12-08T03:16:42.391Z,73.09
2022-12-08T03:18:03.081Z,72.83
2022-12-08T03:19:42.185Z,73.04
2022-12-08T03:21:03.205Z,73.43
2022-12-08T03:22:24.812Z,73.21
2022-12-08T03:23:35.700Z,73.15
2022-12-08T03:24:47.316Z,73.24
2022-12-08T03:26:21.186Z,73.56
2022-12-08T03:27:34.559Z,73.61
2022-12-08T03:28:42.528Z,73.30
2022-12-08T03:30:03.200Z,73.64
2022-12-08T03:31:16.250Z,73.57
2022-12-08T03:32:50.079Z,73.69
2022-12-08T03:34:10.073Z,73.47
2022-12-08T03:35:30.298Z,73.93
2022-12-08T03:36:52.166Z,73.65
2022-12-08T03:38:20.423Z,73.74
2022-12-08T03:39:31.034Z,73.81
2022-12-08T03:40:41.544Z,73.84
2022-12-08T03:41:55.365Z,73.99
2022-12-08T03:43:00.078Z,74.06
2022-12-08T03:44:21.337Z,73.93
2022-12-08T03:45:34.197Z,73.99
2022-12-08T03:46:44.701Z,73.87
2022-12-08T03:47:57.886Z,73.77
2022-12-08T03:49:32.129Z,73.76
2022-12-08T03:50:42.878Z,73.94
2022-12-08T03:51:58.875Z,74.19
2022-12-08T03:53:07.519Z,74.24
2022-12-08T03:54:24.673Z,74.20
2022-12-08T03:55:48.743Z,74.19
2022-12-08T03:57:14.951Z,74.11
2022-12-08T03:58:20.589Z,74.21
2022-12-08T03:59:28.496Z,74.34
2022-12-08T04:00:36.044Z,74.32
2022-12-08T04:01:41.893Z,74.29
2022-12-08T04:02:52.541Z,74.68
2022-12-08T04:03:56.530Z,74.51
2022-12-08T04:05:16.876Z,74.72
2022-12-08T04:06:28.047Z,74.84
2022-12-08T04:07:32.307Z,74.86
2022-12-08T04:08:36.018Z,74.78
2022-12-08T04:09:41.675Z,74.83
2022-12-08T04:10:46.127Z,74.89
2022-12-08T04:11:49.864Z,75.00
2022-12-08T04:12:53.549Z,75.19
2022-12-08T04:13:57.493Z,75.05
2022-12-08T04:15:00.902Z,75.50
2022-12-08T04:16:05.675Z,75.13
2022-12-08T04:17:13.029Z,75.51
2022-12-08T04:18:18.884Z,75.44
2022-12-08T04:19:24.866Z,75.27
2022-12-08T04:20:29.125Z,75.23
2022-12-08T04:21:37.514Z,75.49
2022-12-08T04:22:45.585Z,75.38
2022-12-08T04:23:57.621Z,75.12
2022-12-08T04:25:09.157Z,74.93
2022-12-08T04:26:15.830Z,74.93
2022-12-08T04:27:19.960Z,74.89
2022-12-08T04:28:24.674Z,75.14
2022-12-08T04:29:34.239Z,74.80
2022-12-08T04:30:41.868Z,75.18
2022-12-08T04:31:50.721Z,75.19
2022-12-08T04:32:54.517Z,75.47
2022-12-08T04:33:59.988Z,75.30
2022-12-08T04:35:05.347Z,75.35
2022-12-08T04:36:12.520Z,75.08
2022-12-08T04:37:23.829Z,75.20
2022-12-08T04:38:30.155Z,75.37
2022-12-08T04:39:35.291Z,75.12
2022-12-08T04:40:41.643Z,75.53
2022-12-08T04:41:47.317Z,75.57
2022-12-08T04:42:51.780Z,75.34
2022-12-08T04:43:56.525Z,75.26
2022-12-08T04:45:01.071Z,75.18
2022-12-08T04:46:09.725Z,75.19
2022-12-08T04:47:17.157Z,75.18
2022-12-08T04:48:24.582Z,75.16
2022-12-08T04:49:38.953Z,75.23
2022-12-08T04:50:50.812Z,75.29
2022-12-08T04:51:57.128Z,75.07
2022-12-08T04:53:03.180Z,75.36
2022-12-08T04:54:09.144Z,75.10
2022-12-08T04:55:13.046Z,75.18
2022-12-08T04:56:20.150Z,75.38
2022-12-08T04:57:27.701Z,75.48
2022-12-08T04:58:33.289Z,75.42
2022-12-08T04:59:37.666Z,75.48
2022-12-08T05:00:42.116Z,75.53
2022-12-08T05:01:45.786Z,75.52
2022-12-08T05:02:57.158Z,75.47
2022-12-08T05:04:01.378Z,75.44
2022-12-08T05:05:18.580Z,75.27
2022-12-08T05:06:30.610Z,75.34
2022-12-08T05:07:35.610Z,75.30
2022-12-08T05:08:43.614Z,75.35
2022-12-08T05:09:48.382Z,75.33
2022-12-08T05:11:29.931Z,75.40
2022-12-08T05:12:35.683Z,75.04
2022-12-08T05:13:47.366Z,75.38
2022-12-08T05:14:52.015Z,75.20
2022-12-08T05:16:21.070Z,75.29
2022-12-08T05:17:27.743Z,75.19
2022-12-08T05:18:33.866Z,74.84
2022-12-08T05:19:37.770Z,75.02
2022-12-08T05:20:44.452Z,75.28
2022-12-08T05:21:48.746Z,75.19
2022-12-08T05:22:53.423Z,75.22
2022-12-08T05:23:57.333Z,74.99
2022-12-08T05:25:03.398Z,75.32
2022-12-08T05:26:11.391Z,75.20
2022-12-08T05:27:17.839Z,74.71
2022-12-08T05:28:43.783Z,74.97
2022-12-08T05:29:53.725Z,74.55
2022-12-08T05:31:06.898Z,74.90
2022-12-08T05:32:12.452Z,74.98
2022-12-08T05:33:19.930Z,75.30
2022-12-08T05:34:32.971Z,74.90
2022-12-08T05:35:43.916Z,75.04
2022-12-08T05:36:48.548Z,74.88
2022-12-08T05:37:55.194Z,74.65
2022-12-08T05:39:02.045Z,74.28
2022-12-08T05:40:08.688Z,74.75
2022-12-08T05:41:20.756Z,74.92
2022-12-08T05:42:25.278Z,74.71
2022-12-08T05:43:33.198Z,74.88
2022-12-08T05:44:37.476Z,74.58
2022-12-08T05:45:47.315Z,74.69
2022-12-08T05:46:51.031Z,74.71
2022-12-08T05:48:01.376Z,74.29
2022-12-08T05:49:06.715Z,74.52
2022-12-08T05:50:15.285Z,74.55
2022-12-08T05:51:27.339Z,74.44
2022-12-08T05:52:32.284Z,74.55
2022-12-08T05:53:41.185Z,74.92
2022-12-08T05:54:46.685Z,74.59
2022-12-08T05:55:54.725Z,74.84
2022-12-08T05:56:58.288Z,74.79
2022-12-08T05:58:15.185Z,74.98
2022-12-08T05:59:23.964Z,74.70
2022-12-08T06:00:31.715Z,74.67
2022-12-08T06:01:42.625Z,74.94
2022-12-08T06:02:47.864Z,74.74
2022-12-08T06:03:52.761Z,74.77
2022-12-08T06:04:56.518Z,74.71
2022-12-08T06:06:00.093Z,74.80
2022-12-08T06:07:03.653Z,74.80
2022-12-08T06:08:11.407Z,75.26
2022-12-08T06:09:14.983Z,75.25
2022-12-08T06:10:18.832Z,75.37
2022-12-08T06:11:27.185Z,75.39
2022-12-08T06:12:30.689Z,75.43
2022-12-08T06:13:35.570Z,75.79
2022-12-08T06:14:43.022Z,75.59
2022-12-08T06:15:48.185Z,75.63
2022-12-08T06:16:51.701Z,75.39
2022-12-08T06:17:55.343Z,75.26
2022-12-08T06:19:00.073Z,75.32
2022-12-08T06:20:15.259Z,75.46
2022-12-08T06:21:21.307Z,75.29
2022-12-08T06:22:32.125Z,75.56
2022-12-08T06:23:38.066Z,75.59
2022-12-08T06:24:42.211Z,75.61
2022-12-08T06:25:47.885Z,75.55
2022-12-08T06:26:55.419Z,75.50
2022-12-08T06:28:00.272Z,75.42
2022-12-08T06:29:08.928Z,75.30
2022-12-08T06:30:20.081Z,75.29
2022-12-08T06:31:30.979Z,75.61
2022-12-08T06:32:37.705Z,75.38
2022-12-08T06:33:42.359Z,75.50
2022-12-08T06:34:48.584Z,75.54
2022-12-08T06:35:56.515Z,75.50
2022-12-08T06:37:01.713Z,75.68
2022-12-08T06:38:09.353Z,75.70
2022-12-08T06:39:27.347Z,76.14
2022-12-08T06:40:33.995Z,75.94
2022-12-08T06:41:57.967Z,76.22
2022-12-08T06:43:02.091Z,76.41
2022-12-08T06:44:20.318Z,76.47
2022-12-08T06:45:25.865Z,76.47
2022-12-08T06:46:34.634Z,76.37
2022-12-08T06:47:40.346Z,76.47
2022-12-08T06:48:46.677Z,76.29
2022-12-08T06:49:51.000Z,76.17
2022-12-08T06:50:56.176Z,76.40
2022-12-08T06:52:00.176Z,76.55
2022-12-08T06:53:06.223Z,76.16
2022-12-08T06:54:12.394Z,76.67
2022-12-08T06:55:42.707Z,76.22
2022-12-08T06:56:43.531Z,76.34
2022-12-08T06:57:54.098Z,76.42
2022-12-08T06:59:01.219Z,76.25
2022-12-08T07:00:12.175Z,75.99
2022-12-08T07:01:18.490Z,76.36
2022-12-08T07:02:29.665Z,76.28
2022-12-08T07:03:44.170Z,76.40
2022-12-08T07:04:49.438Z,76.50
2022-12-08T07:06:03.290Z,76.43
2022-12-08T07:07:15.522Z,76.23
2022-12-08T07:08:20.316Z,75.39
2022-12-08T07:09:32.310Z,75.25
2022-12-08T07:10:38.236Z,75.41
2022-12-08T07:11:44.709Z,75.48
2022-12-08T07:12:52.851Z,74.44
2022-12-08T07:13:58.642Z,74.55
2022-12-08T07:15:20.113Z,73.98
2022-12-08T07:16:25.339Z,73.85
2022-12-08T07:17:30.852Z,73.46
2022-12-08T07:18:38.142Z,73.44
2022-12-08T07:19:45.065Z,73.69
2022-12-08T07:20:51.027Z,73.16
2022-12-08T07:21:54.764Z,73.58
2022-12-08T07:23:02.159Z,73.34
2022-12-08T07:24:14.163Z,73.11
2022-12-08T07:25:22.408Z,73.24
2022-12-08T07:26:27.442Z,73.34
2022-12-08T07:27:36.583Z,73.29
2022-12-08T07:28:46.110Z,72.94
2022-12-08T07:29:54.355Z,72.50
2022-12-08T07:31:00.699Z,72.13
2022-12-08T07:32:08.730Z,72.36
2022-12-08T07:33:13.604Z,72.41
2022-12-08T07:34:20.446Z,72.33
2022-12-08T07:35:26.158Z,72.24
2022-12-08T07:36:38.327Z,72.42
2022-12-08T07:37:43.923Z,72.52
2022-12-08T07:38:48.599Z,72.25
2022-12-08T07:39:55.467Z,72.45
2022-12-08T07:41:02.614Z,72.11
2022-12-08T07:42:13.698Z,72.20
2022-12-08T07:43:23.846Z,72.03
2022-12-08T07:44:29.132Z,71.46
2022-12-08T07:45:35.584Z,71.46
2022-12-08T07:46:40.193Z,71.28
2022-12-08T07:47:46.123Z,71.22
2022-12-08T07:48:51.029Z,71.26
2022-12-08T07:49:56.216Z,70.97
2022-12-08T07:51:07.195Z,70.60
2022-12-08T07:52:14.400Z,70.94
2022-12-08T07:53:18.362Z,70.83
2022-12-08T07:54:22.702Z,70.86
2022-12-08T07:55:33.312Z,70.77
2022-12-08T07:56:45.283Z,71.12
2022-12-08T07:57:54.006Z,70.63
2022-12-08T07:59:04.304Z,70.45
2022-12-08T08:00:14.930Z,70.79
2022-12-08T08:01:37.602Z,70.83
2022-12-08T08:02:46.123Z,70.16
2022-12-08T08:03:54.032Z,70.41
2022-12-08T08:05:06.785Z,70.39
2022-12-08T08:06:15.892Z,70.67
2022-12-08T08:07:20.955Z,70.54
2022-12-08T08:08:24.623Z,70.24
2022-12-08T08:09:28.380Z,70.37
2022-12-08T08:10:33.518Z,69.94
2022-12-08T08:11:37.368Z,69.48
2022-12-08T08:12:41.000Z,69.33
2022-12-08T08:13:44.708Z,69.10
2022-12-08T08:14:48.449Z,69.04
2022-12-08T08:15:51.958Z,69.05
2022-12-08T08:16:55.897Z,68.86
2022-12-08T08:17:59.402Z,68.41
2022-12-08T08:19:04.810Z,68.54
2022-12-08T08:20:17.636Z,68.43
2022-12-08T08:21:45.173Z,68.07
2022-12-08T08:22:58.165Z,68.28
2022-12-08T08:24:11.945Z,67.84
2022-12-08T08:25:25.339Z,67.59
2022-12-08T08:26:33.472Z,67.92
2022-12-08T08:27:44.026Z,66.95
2022-12-08T08:28:50.674Z,66.67
2022-12-08T08:29:58.730Z,66.74
2022-12-08T08:31:03.868Z,66.45
2022-12-08T08:32:15.380Z,66.95
2022-12-08T08:33:21.628Z,66.53
2022-12-08T08:34:51.204Z,66.17
2022-12-08T08:35:56.112Z,65.27
2022-12-08T08:36:59.772Z,65.42
2022-12-08T08:38:14.356Z,64.43
2022-12-08T08:39:18.460Z,64.95
2022-12-08T08:40:26.742Z,64.95
2022-12-08T08:41:31.474Z,64.85
2022-12-08T08:42:40.605Z,64.86
2022-12-08T08:43:47.081Z,64.09
2022-12-08T08:44:54.207Z,63.61
2022-12-08T08:46:10.399Z,63.71
2022-12-08T08:47:15.891Z,63.45
2022-12-08T08:48:19.954Z,63.99
2022-12-08T08:49:26.127Z,63.61
2022-12-08T08:50:34.412Z,63.79
2022-12-08T08:51:47.577Z,63.02
2022-12-08T08:52:54.144Z,63.17
2022-12-08T08:54:02.195Z,62.44
2022-12-08T08:55:08.651Z,62.50
2022-12-08T08:56:19.741Z,61.96
2022-12-08T08:57:26.472Z,62.16
2022-12-08T08:58:30.564Z,62.02
2022-12-08T08:59:39.179Z,62.70
2022-12-08T09:00:46.151Z,62.04
2022-12-08T09:01:50.022Z,61.98
2022-12-08T09:02:56.808Z,61.66
2022-12-08T09:04:11.284Z,61.96
2022-12-08T09:05:18.543Z,61.76
2022-12-08T09:06:24.712Z,61.40
2022-12-08T09:07:35.290Z,61.33
2022-12-08T09:08:44.156Z,60.89
2022-12-08T09:09:48.622Z,61.42
2022-12-08T09:11:21.633Z,61.12
2022-12-08T09:12:24.323Z,60.71
2022-12-08T09:13:30.467Z,61.12
2022-12-08T09:14:34.968Z,60.93
2022-12-08T09:15:40.367Z,60.90
2022-12-08T09:16:46.479Z,60.86
2022-12-08T09:17:51.063Z,61.02
2022-12-08T09:18:57.509Z,60.60
2022-12-08T09:20:05.668Z,60.38
2022-12-08T09:21:23.143Z,60.80
2022-12-08T09:22:31.914Z,60.71
2022-12-08T09:23:36.855Z,61.03
2022-12-08T09:24:40.964Z,60.99
2022-12-08T09:25:47.321Z,61.14
2022-12-08T09:26:56.731Z,61.11
2022-12-08T09:28:02.118Z,61.40
2022-12-08T09:29:06.657Z,61.46
2022-12-08T09:30:10.744Z,61.63
2022-12-08T09:31:15.716Z,61.55
2022-12-08T09:32:22.279Z,61.37
2022-12-08T09:33:30.592Z,61.03
2022-12-08T09:34:38.837Z,61.41
2022-12-08T09:35:44.032Z,61.23
2022-12-08T09:36:48.874Z,61.44
2022-12-08T09:37:52.971Z,61.33
2022-12-08T09:38:58.178Z,60.96
2022-12-08T09:40:10.792Z,61.33
2022-12-08T09:41:58.459Z,60.74
2022-12-08T09:43:18.335Z,61.11
2022-12-08T09:44:47.855Z,61.04
2022-12-08T09:45:53.532Z,61.09
2022-12-08T09:47:24.085Z,61.35
2022-12-08T09:48:42.876Z,61.46
2022-12-08T09:51:28.246Z,61.52
2022-12-08T09:52:55.588Z,61.56
2022-12-08T09:54:31.673Z,61.59
2022-12-08T09:56:06.920Z,61.55
2022-12-08T09:57:22.941Z,62.29
2022-12-08T09:59:18.466Z,62.32
2022-12-08T10:00:24.956Z,62.58
2022-12-08T10:01:42.408Z,62.33
2022-12-08T10:02:52.966Z,62.54
2022-12-08T10:05:21.850Z,62.53
2022-12-08T10:06:48.193Z,62.46
2022-12-08T10:08:13.321Z,62.33
2022-12-08T10:09:43.089Z,62.56
2022-12-08T10:11:00.088Z,62.29
2022-12-08T10:12:41.815Z,62.37
2022-12-08T10:14:31.550Z,62.38
2022-12-08T10:16:42.199Z,62.73
2022-12-08T10:17:55.491Z,62.93
2022-12-08T10:19:26.945Z,63.69
2022-12-08T10:20:47.704Z,63.55
2022-12-08T10:21:57.843Z,63.54
2022-12-08T10:23:04.946Z,63.41
2022-12-08T10:24:38.697Z,63.04
2022-12-08T10:26:17.058Z,63.17
2022-12-08T10:27:36.430Z,62.68
2022-12-08T10:28:45.167Z,62.87
2022-12-08T10:29:54.038Z,62.90
2022-12-08T10:30:58.992Z,63.05
2022-12-08T10:32:24.752Z,62.81
2022-12-08T10:33:47.325Z,62.89
2022-12-08T10:35:23.164Z,62.95
2022-12-08T10:36:58.219Z,62.71
2022-12-08T10:38:12.235Z,63.00
2022-12-08T10:39:40.814Z,62.73
2022-12-08T10:40:50.934Z,62.82
2022-12-08T10:42:02.007Z,62.67
2022-12-08T10:43:28.975Z,62.46
2022-12-08T10:44:33.802Z,62.72
2022-12-08T10:45:42.109Z,62.87
2022-12-08T10:46:54.405Z,63.04
2022-12-08T10:48:28.526Z,62.70
2022-12-08T10:49:33.796Z,63.07
2022-12-08T10:50:45.619Z,63.30
2022-12-08T10:51:49.697Z,63.20
2022-12-08T10:53:05.419Z,63.29
2022-12-08T10:54:38.716Z,63.05
2022-12-08T10:55:57.910Z,63.05
2022-12-08T10:57:01.733Z,63.28
2022-12-08T10:58:06.834Z,63.26
2022-12-08T10:59:20.923Z,63.25
2022-12-08T11:00:29.191Z,63.38
2022-12-08T11:01:55.216Z,63.35
2022-12-08T11:03:22.372Z,63.29
2022-12-08T11:04:39.947Z,63.41
2022-12-08T11:05:44.401Z,63.42
2022-12-08T11:06:53.901Z,63.43
2022-12-08T11:08:03.115Z,63.67
2022-12-08T11:09:21.454Z,63.82
2022-12-08T11:10:43.886Z,63.65
2022-12-08T11:11:53.895Z,63.77
2022-12-08T11:13:12.330Z,63.71
2022-12-08T11:14:49.333Z,63.18
2022-12-08T11:15:58.922Z,62.99
2022-12-08T11:17:39.307Z,63.33
2022-12-08T11:18:55.014Z,63.54
2022-12-08T11:20:10.981Z,63.60
2022-12-08T11:21:20.926Z,63.61
2022-12-08T11:22:36.110Z,63.64
2022-12-08T11:23:56.703Z,63.89
2022-12-08T11:25:44.901Z,64.17
2022-12-08T11:26:59.411Z,63.93
2022-12-08T11:28:18.787Z,63.88
2022-12-08T11:29:27.856Z,63.82
2022-12-08T11:30:47.609Z,63.95
2022-12-08T11:32:01.234Z,63.84
2022-12-08T11:33:29.962Z,64.00
2022-12-08T11:35:07.316Z,64.06
2022-12-08T11:36:17.907Z,64.32
2022-12-08T11:37:48.162Z,64.10
2022-12-08T11:39:06.547Z,63.63
2022-12-08T11:40:46.939Z,64.03
2022-12-08T11:41:57.949Z,63.88
2022-12-08T11:43:35.330Z,63.77
2022-12-08T11:45:00.777Z,64.13
2022-12-08T11:46:37.749Z,63.88
2022-12-08T11:47:56.113Z,63.89
2022-12-08T11:49:20.091Z,63.80
2022-12-08T11:50:50.608Z,64.15
2022-12-08T11:52:09.769Z,63.87
2022-12-08T11:54:03.348Z,63.99
2022-12-08T11:55:37.587Z,64.26
2022-12-08T11:57:04.128Z,63.98
2022-12-08T11:58:41.643Z,64.18
2022-12-08T11:59:56.220Z,64.27
2022-12-08T12:01:02.958Z,64.30
2022-12-08T12:02:24.346Z,64.33
2022-12-08T12:03:50.722Z,64.21
2022-12-08T12:05:07.733Z,64.35
2022-12-08T12:06:55.858Z,64.22
2022-12-08T12:08:53.394Z,64.47
2022-12-08T12:10:52.961Z,64.24
2022-12-08T12:12:16.021Z,64.64
2022-12-08T12:14:31.133Z,64.82
2022-12-08T12:16:30.284Z,65.50
2022-12-08T12:17:49.277Z,65.29
2022-12-08T12:19:01.200Z,65.21
2022-12-08T12:20:25.327Z,65.04
2022-12-08T12:21:43.736Z,65.00
2022-12-08T12:23:17.882Z,65.07
2022-12-08T12:24:47.912Z,65.01
2022-12-08T12:26:15.234Z,65.07
2022-12-08T12:27:41.757Z,65.32
2022-12-08T12:29:08.537Z,65.28
2022-12-08T12:30:52.959Z,65.25
2022-12-08T12:32:07.947Z,65.01
2022-12-08T12:33:19.748Z,65.07
2022-12-08T12:34:39.528Z,65.54
2022-12-08T12:35:49.755Z,65.61
2022-12-08T12:37:15.807Z,65.94
2022-12-08T12:38:55.810Z,66.01
2022-12-08T12:40:05.226Z,65.75
2022-12-08T12:41:34.455Z,65.67
2022-12-08T12:42:51.178Z,65.47
2022-12-08T12:44:43.811Z,66.18
2022-12-08T12:45:53.903Z,66.66
2022-12-08T12:47:15.353Z,66.54
2022-12-08T12:48:26.863Z,66.35
2022-12-08T12:49:41.150Z,66.35
2022-12-08T12:50:55.385Z,66.29
2022-12-08T12:51:58.794Z,66.27
2022-12-08T12:53:27.298Z,66.25
2022-12-08T12:54:32.226Z,66.65
2022-12-08T12:56:04.214Z,67.23
2022-12-08T12:57:20.302Z,67.27
2022-12-08T12:58:30.278Z,67.42
2022-12-08T12:59:55.639Z,67.53
2022-12-08T13:01:40.575Z,66.77
2022-12-08T13:02:49.290Z,66.61
2022-12-08T13:04:11.591Z,66.56
2022-12-08T13:05:48.770Z,66.58
2022-12-08T13:06:53.009Z,67.21
2022-12-08T13:08:38.009Z,68.12
2022-12-08T13:09:47.513Z,68.01
2022-12-08T13:11:12.188Z,68.32
2022-12-08T13:12:29.385Z,68.11
2022-12-08T13:13:36.609Z,67.96
2022-12-08T13:14:53.171Z,67.99
2022-12-08T13:16:19.087Z,68.21
2022-12-08T13:17:33.379Z,68.35
2022-12-08T13:18:49.884Z,67.92
2022-12-08T13:20:00.323Z,68.32
2022-12-08T13:21:46.354Z,68.46
2022-12-08T13:23:13.725Z,68.63
2022-12-08T13:24:38.294Z,69.00
2022-12-08T13:25:49.282Z,68.99
2022-12-08T13:27:17.536Z,69.13
2022-12-08T13:28:34.312Z,68.84
2022-12-08T13:29:44.146Z,68.62
2022-12-08T13:31:14.953Z,69.00
2022-12-08T13:33:18.412Z,69.20
2022-12-08T13:34:52.802Z,69.24
2022-12-08T13:36:26.140Z,68.68
2022-12-08T13:37:54.412Z,68.91
2022-12-08T13:39:07.898Z,68.93
2022-12-08T13:40:34.821Z,68.94
2022-12-08T13:41:58.512Z,69.22
2022-12-08T13:43:45.142Z,69.32
2022-12-08T13:46:18.315Z,69.96
2022-12-08T13:56:52.453Z,69.99
2022-12-08T13:57:35.692Z,69.95
2022-12-08T13:58:42.010Z,70.28
2022-12-08T13:59:49.867Z,70.89
2022-12-08T14:01:27.653Z,70.77
2022-12-08T14:02:47.859Z,70.33
2022-12-08T14:04:37.586Z,69.91
2022-12-08T14:06:12.161Z,70.01
2022-12-08T14:07:12.319Z,70.38
2022-12-08T14:10:00.538Z,70.20
2022-12-08T14:11:07.889Z,70.02
2022-12-08T14:12:28.362Z,69.65
2022-12-08T14:13:34.369Z,70.07
2022-12-08T14:16:42.735Z,70.63
2022-12-08T14:17:57.772Z,71.00
2022-12-08T14:19:21.576Z,70.70
2022-12-08T14:21:12.074Z,71.00
2022-12-08T14:22:20.873Z,71.54
2022-12-08T14:23:24.513Z,71.74
2022-12-08T14:24:35.833Z,71.97
2022-12-08T14:25:49.762Z,71.29
2022-12-08T14:27:02.024Z,71.16
2022-12-08T14:28:13.324Z,70.74
2022-12-08T14:29:52.938Z,71.22
2022-12-08T14:31:04.130Z,70.98
2022-12-08T14:32:34.264Z,71.55
2022-12-08T14:33:41.644Z,71.25
2022-12-08T14:35:02.766Z,71.05
2022-12-08T14:36:17.814Z,71.32
2022-12-08T14:37:27.445Z,71.95
2022-12-08T14:38:33.158Z,71.96
2022-12-08T14:39:46.130Z,72.67
2022-12-08T14:41:15.013Z,72.79
2022-12-08T14:42:29.077Z,72.80
2022-12-08T14:43:34.329Z,72.25
2022-12-08T14:44:42.300Z,72.44
2022-12-08T14:45:57.593Z,72.40
2022-12-08T14:47:18.883Z,73.04
2022-12-08T14:48:30.982Z,72.88
2022-12-08T14:49:40.159Z,73.19
2022-12-08T14:51:25.517Z,73.60
2022-12-08T14:52:33.408Z,74.06
2022-12-08T14:53:40.083Z,73.82
2022-12-08T14:54:46.673Z,73.44
2022-12-08T14:55:51.534Z,72.87
2022-12-08T14:56:57.537Z,73.06
2022-12-08T14:58:05.249Z,73.20
2022-12-08T14:59:35.709Z,73.45
2022-12-08T15:00:55.769Z,73.14
2022-12-08T15:02:32.771Z,73.72
2022-12-08T15:03:39.946Z,73.39
2022-12-08T15:04:57.942Z,73.28
2022-12-08T15:06:11.129Z,73.19
2022-12-08T15:07:29.485Z,74.00
2022-12-08T15:08:55.671Z,74.05
2022-12-08T15:10:38.104Z,73.40
2022-12-08T15:11:43.982Z,73.35
2022-12-08T15:13:25.503Z,72.84
2022-12-08T15:14:38.521Z,73.04
2022-12-08T15:15:53.975Z,73.09
2022-12-08T15:17:01.738Z,72.74
2022-12-08T15:18:30.895Z,73.35
2022-12-08T15:19:39.493Z,73.20
2022-12-08T15:21:02.637Z,73.35
2022-12-08T15:22:24.582Z,73.56
2022-12-08T15:23:45.433Z,73.57
2022-12-08T15:24:49.361Z,73.45
2022-12-08T15:25:59.816Z,73.70
2022-12-08T15:27:12.436Z,74.35
2022-12-08T15:28:29.401Z,73.83
2022-12-08T15:29:37.274Z,74.02
2022-12-08T15:30:41.843Z,74.11
2022-12-08T15:31:46.072Z,74.21
2022-12-08T15:32:57.216Z,74.04
2022-12-08T15:34:01.795Z,74.49
2022-12-08T15:35:10.624Z,74.20
2022-12-08T15:36:15.868Z,74.41
2022-12-08T15:37:28.915Z,74.30
2022-12-08T15:38:40.329Z,74.48
2022-12-08T15:39:46.723Z,74.55
2022-12-08T15:40:55.065Z,74.46
2022-12-08T15:42:01.646Z,74.25
2022-12-08T15:43:12.931Z,74.35
2022-12-08T15:44:16.578Z,74.66
2022-12-08T15:45:33.136Z,74.33
2022-12-08T15:46:39.493Z,74.19
2022-12-08T15:47:46.952Z,74.37
2022-12-08T15:48:58.072Z,74.51
2022-12-08T15:50:09.524Z,74.90
2022-12-08T15:51:13.224Z,75.08
2022-12-08T15:52:24.852Z,74.95
2022-12-08T15:53:29.153Z,75.39
2022-12-08T15:54:33.625Z,75.35
2022-12-08T15:56:03.849Z,75.50
2022-12-08T15:58:30.843Z,75.49
2022-12-08T15:58:59.793Z,75.24
2022-12-08T16:00:24.368Z,75.12
2022-12-08T16:01:31.895Z,75.04
2022-12-08T16:03:13.092Z,75.28
2022-12-08T16:05:59.581Z,75.25
2022-12-08T16:08:45.831Z,75.15
2022-12-08T16:09:48.910Z,74.98
2022-12-08T16:11:40.799Z,74.84
2022-12-08T16:15:01.684Z,74.79
2022-12-08T16:16:00.934Z,75.06
2022-12-08T16:17:07.347Z,74.96
2022-12-08T16:18:30.888Z,75.21
2022-12-08T16:19:40.054Z,75.01